Time;durP1;ratioP1;P1;durP2;ratioP2;P2;SDS_P1;SDS_P2;PMS_P1;PMS_P2;Temp;Humidity;BMP_temperature;BMP_pressure;BME280_temperature;BME280_humidity;BME280_pressure;Samples;Min_cycle;Max_cycle;Signal;HPM_P1;HPM_P2
2023/07/17 00:01:56;;;;;;;11.00;3.85;;;;;;;17.41;100.00;101242.88;4977694;28;20046;-70
2023/07/17 00:04:42;;;;;;;9.90;4.20;;;;;;;17.41;100.00;101253.94;4986332;28;20082;-70
2023/07/17 00:07:28;;;;;;;13.52;4.28;;;;;;;17.45;100.00;101255.38;4961746;28;20070;-69
2023/07/17 00:10:14;;;;;;;14.20;4.75;;;;;;;17.36;100.00;101239.69;4987380;28;20042;-70
2023/07/17 00:12:59;;;;;;;9.32;4.50;;;;;;;17.18;100.00;101233.25;4987955;28;20057;-69
2023/07/17 00:15:45;;;;;;;9.70;5.03;;;;;;;17.25;100.00;101221.41;4973962;28;20493;-69
2023/07/17 00:18:34;;;;;;;6.88;3.83;;;;;;;17.26;100.00;101230.59;4988228;28;20137;-71
2023/07/17 00:21:20;;;;;;;12.43;4.60;;;;;;;17.32;100.00;101229.09;4979370;28;20081;-71
2023/07/17 00:24:06;;;;;;;14.35;4.65;;;;;;;17.31;100.00;101225.44;4986385;28;20489;-69
2023/07/17 00:26:52;;;;;;;13.85;4.72;;;;;;;17.31;100.00;101228.22;4986765;28;20053;-68
2023/07/17 00:29:37;;;;;;;12.23;4.63;;;;;;;17.08;100.00;101234.19;4957401;28;20411;-69
2023/07/17 00:32:23;;;;;;;10.18;4.18;;;;;;;17.15;100.00;101233.56;4981225;28;20052;-68
2023/07/17 00:35:09;;;;;;;10.95;4.53;;;;;;;17.12;100.00;101242.19;4994021;28;20034;-69
2023/07/17 00:37:55;;;;;;;10.77;3.80;;;;;;;17.19;100.00;101238.66;4991114;28;20324;-68
2023/07/17 00:40:40;;;;;;;11.43;4.68;;;;;;;17.20;100.00;101245.94;4990238;28;20046;-69
2023/07/17 00:43:26;;;;;;;7.38;3.80;;;;;;;17.12;100.00;101245.84;4972256;28;20070;-69
2023/07/17 00:46:12;;;;;;;11.13;4.07;;;;;;;17.09;100.00;101252.53;4979527;28;20110;-69
2023/07/17 00:48:58;;;;;;;7.22;3.60;;;;;;;17.20;100.00;101258.88;5005468;28;20046;-69
2023/07/17 00:51:44;;;;;;;10.45;3.72;;;;;;;17.17;100.00;101265.59;5010085;28;20409;-69
2023/07/17 00:54:31;;;;;;;10.40;3.97;;;;;;;17.14;100.00;101263.16;5001894;28;20057;-69
2023/07/17 00:57:18;;;;;;;9.35;4.15;;;;;;;17.16;100.00;101272.16;5001338;28;20117;-72
2023/07/17 01:00:05;;;;;;;9.98;4.18;;;;;;;17.15;100.00;101267.66;5001912;28;20397;-69
2023/07/17 01:02:52;;;;;;;16.20;3.75;;;;;;;17.06;100.00;101269.44;5004944;28;20562;-70
2023/07/17 01:05:38;;;;;;;12.48;4.30;;;;;;;17.07;100.00;101278.63;4998532;28;20077;-69
2023/07/17 01:08:23;;;;;;;8.70;4.22;;;;;;;16.91;100.00;101273.75;5003836;28;20049;-69
2023/07/17 01:11:09;;;;;;;10.20;4.03;;;;;;;16.99;100.00;101276.63;5012196;28;20061;-69
2023/07/17 01:13:55;;;;;;;11.45;4.00;;;;;;;16.88;100.00;101274.06;5002918;28;20052;-70
2023/07/17 01:16:41;;;;;;;11.20;3.90;;;;;;;16.94;100.00;101262.38;5004494;28;20115;-70
2023/07/17 01:19:27;;;;;;;11.20;4.15;;;;;;;16.90;100.00;101263.69;5007585;28;20408;-69
2023/07/17 01:22:29;;;;;;;12.25;4.20;;;;;;;16.82;100.00;101266.31;5002854;28;20119;-71
2023/07/17 01:25:15;;;;;;;10.05;3.85;;;;;;;16.75;100.00;101271.59;5006679;28;20038;-69
2023/07/17 01:28:00;;;;;;;10.55;3.90;;;;;;;16.75;100.00;101273.50;5003586;28;20587;-72
2023/07/17 01:30:46;;;;;;;7.65;3.75;;;;;;;16.65;100.00;101268.88;5009229;28;20126;-68
2023/07/17 01:33:32;;;;;;;10.57;4.10;;;;;;;16.55;100.00;101273.56;5010151;28;20069;-68
2023/07/17 01:36:18;;;;;;;9.13;4.32;;;;;;;16.59;100.00;101271.38;5007779;28;20038;-69
2023/07/17 01:39:03;;;;;;;9.80;3.80;;;;;;;16.53;100.00;101278.38;5011948;28;20046;-69
2023/07/17 01:41:49;;;;;;;14.52;3.90;;;;;;;16.54;100.00;101278.22;4997219;28;20101;-69
2023/07/17 01:44:35;;;;;;;11.55;3.65;;;;;;;16.53;100.00;101284.78;5002198;28;20046;-69
2023/07/17 01:47:21;;;;;;;9.02;3.72;;;;;;;16.57;100.00;101278.94;4994575;28;20116;-68
2023/07/17 01:50:07;;;;;;;7.57;3.97;;;;;;;16.60;100.00;101285.03;5009390;28;20058;-68
2023/07/17 01:52:52;;;;;;;7.10;3.53;;;;;;;16.54;100.00;101288.41;5003751;28;20056;-69
2023/07/17 01:55:38;;;;;;;10.57;4.00;;;;;;;16.51;100.00;101283.16;4997901;28;20080;-69
2023/07/17 01:58:24;;;;;;;16.92;4.20;;;;;;;16.61;100.00;101277.59;5005782;28;20053;-70
2023/07/17 02:01:09;;;;;;;9.75;4.22;;;;;;;16.61;100.00;101277.59;5000926;28;20046;-70
2023/07/17 02:03:55;;;;;;;9.50;3.90;;;;;;;16.62;100.00;101283.00;5009289;28;20042;-68
2023/07/17 02:06:41;;;;;;;9.52;3.50;;;;;;;16.59;100.00;101274.13;5008649;28;20415;-70
2023/07/17 02:09:27;;;;;;;9.57;3.42;;;;;;;16.53;100.00;101268.19;4985735;28;20060;-69
2023/07/17 02:12:12;;;;;;;16.23;3.80;;;;;;;16.52;100.00;101271.97;5012324;28;20513;-69
2023/07/17 02:14:58;;;;;;;10.85;3.60;;;;;;;16.57;100.00;101274.28;4998924;28;20502;-69
2023/07/17 02:17:44;;;;;;;14.82;4.05;;;;;;;16.48;100.00;101278.81;5006985;28;20049;-69
2023/07/17 02:20:29;;;;;;;10.15;3.85;;;;;;;16.52;100.00;101280.25;4999525;28;20708;-69
2023/07/17 02:23:15;;;;;;;11.55;4.25;;;;;;;16.42;100.00;101286.84;5006927;28;20034;-72
2023/07/17 02:26:01;;;;;;;13.35;3.83;;;;;;;16.33;100.00;101283.06;5002124;28;20042;-70
2023/07/17 02:28:47;;;;;;;10.65;3.67;;;;;;;16.40;100.00;101288.88;5000192;28;20056;-69
2023/07/17 02:31:32;;;;;;;7.68;3.50;;;;;;;16.44;100.00;101280.13;5002313;28;20425;-69
2023/07/17 02:34:18;;;;;;;17.05;3.95;;;;;;;16.35;100.00;101272.75;5000519;28;20145;-68
2023/07/17 02:37:09;;;;;;;7.65;3.53;;;;;;;16.30;100.00;101272.34;5005354;28;20042;-69
2023/07/17 02:39:56;;;;;;;6.07;3.30;;;;;;;16.29;100.00;101273.34;5015028;28;20358;-70
2023/07/17 02:42:41;;;;;;;10.50;3.13;;;;;;;16.11;100.00;101282.38;5002062;28;20042;-70
2023/07/17 02:45:27;;;;;;;8.18;3.63;;;;;;;16.13;100.00;101279.47;5004848;28;20053;-69
2023/07/17 02:48:13;;;;;;;10.10;3.53;;;;;;;16.11;100.00;101292.56;5007384;28;20050;-69
2023/07/17 02:50:59;;;;;;;10.68;3.25;;;;;;;16.13;100.00;101294.19;5010049;28;20070;-69
2023/07/17 02:53:44;;;;;;;16.52;4.18;;;;;;;15.89;100.00;101290.97;5006415;28;20041;-69
2023/07/17 02:56:30;;;;;;;7.53;3.47;;;;;;;15.89;100.00;101302.00;5012400;28;20051;-68
2023/07/17 02:59:16;;;;;;;9.82;3.17;;;;;;;15.89;100.00;101294.63;4995715;28;20377;-69
2023/07/17 03:02:02;;;;;;;13.38;3.60;;;;;;;15.86;100.00;101302.31;5006024;28;20041;-69
2023/07/17 03:04:47;;;;;;;14.20;3.50;;;;;;;15.78;100.00;101300.28;5010693;28;20037;-71
2023/07/17 03:07:35;;;;;;;8.82;3.20;;;;;;;15.74;100.00;101309.81;4991815;28;20112;-70
2023/07/17 03:10:21;;;;;;;11.52;3.33;;;;;;;15.82;100.00;101321.03;5008922;28;20061;-69
2023/07/17 03:13:07;;;;;;;13.57;3.58;;;;;;;15.68;100.00;101315.94;5008815;28;20945;-69
2023/07/17 03:15:58;;;;;;;7.68;3.20;;;;;;;15.65;100.00;101325.38;5013662;28;20485;-70
2023/07/17 03:18:44;;;;;;;8.18;3.30;;;;;;;15.61;100.00;101326.69;5011289;28;20056;-70
2023/07/17 03:21:30;;;;;;;10.57;3.30;;;;;;;15.54;100.00;101320.84;5000399;28;20053;-72
2023/07/17 03:24:15;;;;;;;10.70;3.50;;;;;;;15.51;100.00;101321.16;5001893;28;20053;-68
2023/07/17 03:27:01;;;;;;;7.25;2.97;;;;;;;15.50;100.00;101315.75;4989997;28;20041;-69
2023/07/17 03:29:47;;;;;;;11.73;3.00;;;;;;;15.53;100.00;101319.09;4997126;28;20141;-70
2023/07/17 03:32:34;;;;;;;9.70;3.15;;;;;;;15.47;100.00;101324.31;5007439;28;20038;-68
2023/07/17 03:35:20;;;;;;;10.70;2.92;;;;;;;15.41;100.00;101334.03;5005220;28;20159;-68
2023/07/17 03:38:06;;;;;;;7.35;3.15;;;;;;;15.51;100.00;101334.94;5003444;28;20038;-69
2023/07/17 03:40:51;;;;;;;13.70;3.33;;;;;;;15.45;100.00;101332.75;4988885;28;20053;-72
2023/07/17 03:43:37;;;;;;;8.70;2.78;;;;;;;15.42;100.00;101339.41;5001404;28;20045;-71
2023/07/17 03:46:23;;;;;;;8.85;2.90;;;;;;;15.41;100.00;101331.28;5007178;28;20092;-70
2023/07/17 03:49:09;;;;;;;11.70;3.08;;;;;;;15.31;100.00;101342.28;4990659;28;20504;-68
2023/07/17 03:51:54;;;;;;;11.88;3.85;;;;;;;15.17;100.00;101334.41;5007036;28;20484;-69
2023/07/17 03:54:40;;;;;;;12.73;3.78;;;;;;;15.19;100.00;101338.75;5007359;28;20141;-70
2023/07/17 03:57:26;;;;;;;9.05;3.40;;;;;;;15.16;100.00;101341.78;4990744;28;20046;-70
2023/07/17 04:00:15;;;;;;;9.70;2.97;;;;;;;15.20;100.00;101348.78;4991404;28;20104;-70
2023/07/17 04:03:01;;;;;;;10.93;3.17;;;;;;;15.24;100.00;101347.50;5005813;28;20579;-70
2023/07/17 04:05:47;;;;;;;12.68;2.90;;;;;;;15.20;100.00;101354.31;5007261;28;20042;-69
2023/07/17 04:08:33;;;;;;;11.43;3.85;;;;;;;15.19;100.00;101347.03;5007796;28;20129;-70
2023/07/17 04:11:19;;;;;;;10.43;2.92;;;;;;;15.15;100.00;101348.34;4991278;28;20535;-69
2023/07/17 04:14:05;;;;;;;10.50;3.92;;;;;;;15.19;100.00;101354.44;5006976;28;20038;-69
2023/07/17 04:16:51;;;;;;;11.48;3.60;;;;;;;15.22;100.00;101346.75;5006996;28;20046;-69
2023/07/17 04:19:36;;;;;;;9.13;3.50;;;;;;;15.23;100.00;101348.53;5005729;28;20210;-70
2023/07/17 04:22:22;;;;;;;12.50;3.88;;;;;;;15.19;100.00;101358.06;5002693;28;20386;-70
2023/07/17 04:25:09;;;;;;;7.40;3.53;;;;;;;15.14;100.00;101351.25;5006285;28;20088;-70
2023/07/17 04:27:55;;;;;;;15.35;3.70;;;;;;;15.12;100.00;101369.78;5006297;28;20065;-70
2023/07/17 04:30:40;;;;;;;6.57;3.00;;;;;;;15.22;100.00;101363.31;5005871;28;20138;-71
2023/07/17 04:33:26;;;;;;;14.48;3.22;;;;;;;15.30;100.00;101364.50;4992596;28;20053;-70
2023/07/17 04:36:12;;;;;;;9.80;3.40;;;;;;;15.27;100.00;101362.91;5002645;28;20085;-69
2023/07/17 04:38:58;;;;;;;10.32;3.47;;;;;;;15.37;100.00;101362.94;5010130;28;20041;-71
2023/07/17 04:41:43;;;;;;;10.85;3.40;;;;;;;15.36;100.00;101362.03;4977428;28;20136;-70
2023/07/17 04:44:29;;;;;;;10.38;4.80;;;;;;;15.30;100.00;101370.00;5006477;28;20042;-72
2023/07/17 04:47:15;;;;;;;14.68;3.72;;;;;;;15.39;100.00;101374.69;5004930;28;20054;-71
2023/07/17 04:50:00;;;;;;;12.70;3.75;;;;;;;15.42;100.00;101378.03;5004043;28;20098;-72
2023/07/17 04:52:46;;;;;;;9.00;3.78;;;;;;;15.40;100.00;101385.59;5004862;28;20587;-72
2023/07/17 04:55:32;;;;;;;8.65;3.38;;;;;;;15.33;100.00;101383.53;5006427;28;20459;-69
2023/07/17 04:58:19;;;;;;;13.65;3.70;;;;;;;15.33;100.00;101386.28;4991208;28;20038;-72
2023/07/17 05:01:05;;;;;;;11.52;3.38;;;;;;;15.32;100.00;101390.94;5005665;28;20128;-70
2023/07/17 05:03:51;;;;;;;9.07;3.67;;;;;;;15.42;100.00;101393.72;5003557;28;20049;-70
2023/07/17 05:06:37;;;;;;;10.43;3.88;;;;;;;15.48;100.00;101390.44;5008364;28;20046;-69
2023/07/17 05:09:22;;;;;;;14.05;3.83;;;;;;;15.48;100.00;101398.69;5005918;28;20073;-70
2023/07/17 05:12:08;;;;;;;15.48;3.72;;;;;;;15.59;100.00;101393.06;5003507;28;20046;-70
2023/07/17 05:14:54;;;;;;;10.77;3.60;;;;;;;15.57;100.00;101389.56;5005642;28;20046;-69
2023/07/17 05:17:39;;;;;;;12.02;4.20;;;;;;;15.67;100.00;101391.47;5004354;28;20045;-69
2023/07/17 05:20:25;;;;;;;9.70;3.78;;;;;;;15.72;100.00;101402.97;5005007;28;20042;-70
2023/07/17 05:23:12;;;;;;;12.35;4.13;;;;;;;15.88;100.00;101403.31;5008416;28;20168;-69
2023/07/17 05:25:59;;;;;;;12.40;4.32;;;;;;;15.73;100.00;101405.59;5008526;28;20133;-69
2023/07/17 05:28:47;;;;;;;8.23;3.70;;;;;;;16.01;100.00;101404.97;5004522;28;20042;-70
2023/07/17 05:31:33;;;;;;;9.20;4.00;;;;;;;16.15;100.00;101413.69;5001756;28;20473;-69
2023/07/17 05:34:19;;;;;;;8.98;3.90;;;;;;;16.35;100.00;101411.81;5006819;28;20442;-69
2023/07/17 05:37:05;;;;;;;10.10;3.53;;;;;;;16.68;100.00;101408.72;5004167;28;20116;-69
2023/07/17 05:39:50;;;;;;;11.00;4.10;;;;;;;16.58;100.00;101413.38;5006945;28;20161;-69
2023/07/17 05:42:36;;;;;;;9.30;3.67;;;;;;;16.97;100.00;101416.09;4991759;28;20078;-70
2023/07/17 05:45:22;;;;;;;12.65;3.63;;;;;;;17.08;100.00;101418.69;5006548;28;20495;-70
2023/07/17 05:48:08;;;;;;;13.18;3.33;;;;;;;17.26;100.00;101429.84;4993042;28;20410;-70
2023/07/17 05:50:53;;;;;;;14.82;3.60;;;;;;;17.20;100.00;101414.75;5013525;28;20042;-70
2023/07/17 05:53:39;;;;;;;9.88;3.25;;;;;;;17.67;100.00;101424.00;5003797;28;20049;-69
2023/07/17 05:56:25;;;;;;;9.68;3.22;;;;;;;17.65;100.00;101424.16;5006300;28;20049;-70
2023/07/17 05:59:11;;;;;;;14.75;3.80;;;;;;;17.68;100.00;101426.63;5001951;28;20497;-70
2023/07/17 06:01:56;;;;;;;11.05;3.53;;;;;;;17.75;100.00;101432.41;5005360;28;20073;-70
2023/07/17 06:04:42;;;;;;;9.35;3.22;;;;;;;17.91;100.00;101429.00;4975024;28;20038;-70
2023/07/17 06:07:29;;;;;;;11.13;3.70;;;;;;;18.00;100.00;101422.50;4999647;28;20042;-70
2023/07/17 06:10:15;;;;;;;17.85;4.18;;;;;;;18.03;100.00;101430.50;4979604;28;20555;-70
2023/07/17 06:13:02;;;;;;;11.93;3.28;;;;;;;17.83;100.00;101438.91;5006424;28;20031;-71
2023/07/17 06:15:47;;;;;;;10.82;4.10;;;;;;;18.05;100.00;101447.84;5005282;28;20037;-71
2023/07/17 06:18:33;;;;;;;15.50;3.97;;;;;;;18.74;100.00;101442.63;4999960;28;20040;-70
2023/07/17 06:21:19;;;;;;;11.90;4.10;;;;;;;17.95;100.00;101442.38;5005939;28;20046;-70
2023/07/17 06:24:08;;;;;;;18.58;3.88;;;;;;;18.62;100.00;101449.47;5001183;28;20057;-71
2023/07/17 06:26:53;;;;;;;14.45;4.30;;;;;;;18.86;100.00;101452.47;5001066;28;20162;-70
2023/07/17 06:29:39;;;;;;;11.60;3.83;;;;;;;19.32;100.00;101457.84;5005862;28;20034;-70
2023/07/17 06:32:26;;;;;;;12.07;4.18;;;;;;;19.39;100.00;101455.28;5000390;28;20121;-71
2023/07/17 06:35:12;;;;;;;10.05;3.97;;;;;;;19.38;100.00;101453.50;4996212;28;20046;-71
2023/07/17 06:37:58;;;;;;;11.02;4.85;;;;;;;19.83;100.00;101469.06;5000571;28;20046;-71
2023/07/17 06:40:43;;;;;;;9.70;4.30;;;;;;;19.20;100.00;101453.56;5000910;28;20068;-70
2023/07/17 06:43:29;;;;;;;10.88;3.83;;;;;;;19.16;100.00;101460.50;5010105;28;20049;-70
2023/07/17 06:46:16;;;;;;;15.45;3.90;;;;;;;18.94;100.00;101473.00;5008534;28;20041;-71
2023/07/17 06:49:02;;;;;;;11.50;4.10;;;;;;;18.80;100.00;101471.66;5009121;28;20100;-70
2023/07/17 06:51:48;;;;;;;15.73;5.57;;;;;;;18.87;100.00;101462.56;5002318;28;20512;-72
2023/07/17 06:54:34;;;;;;;9.77;3.55;;;;;;;19.61;100.00;101468.59;4994386;28;20468;-71
2023/07/17 06:57:20;;;;;;;11.15;3.75;;;;;;;19.43;100.00;101468.66;4982080;28;20050;-70
2023/07/17 07:00:06;;;;;;;10.60;4.20;;;;;;;20.23;100.00;101475.78;4997593;28;20053;-70
2023/07/17 07:02:54;;;;;;;11.13;3.78;;;;;;;20.57;100.00;101478.47;5005793;28;20290;-70
2023/07/17 07:05:39;;;;;;;8.85;3.20;;;;;;;20.50;100.00;101482.97;5008151;28;20069;-70
2023/07/17 07:08:27;;;;;;;9.75;3.55;;;;;;;21.16;95.87;101485.81;5005792;28;20042;-70
2023/07/17 07:11:13;;;;;;;21.35;4.13;;;;;;;20.59;97.38;101486.63;5003948;28;20041;-70
2023/07/17 07:13:59;;;;;;;11.82;3.80;;;;;;;19.32;100.00;101480.06;4984026;28;20590;-70
2023/07/17 07:16:45;;;;;;;11.63;3.85;;;;;;;19.86;100.00;101496.53;5009347;28;20124;-70
2023/07/17 07:19:30;;;;;;;11.30;3.72;;;;;;;20.20;99.15;101498.38;5012576;28;20042;-70
2023/07/17 07:22:16;;;;;;;13.80;3.67;;;;;;;20.68;96.01;101499.56;5005928;28;20050;-70
2023/07/17 07:25:02;;;;;;;13.52;4.00;;;;;;;20.62;96.30;101497.44;5013145;28;20531;-70
2023/07/17 07:27:48;;;;;;;10.77;3.58;;;;;;;20.56;95.18;101495.31;4983979;28;20034;-70
2023/07/17 07:30:34;;;;;;;10.95;3.88;;;;;;;21.03;91.83;101500.25;4994469;28;20129;-71
2023/07/17 07:33:20;;;;;;;11.43;3.25;;;;;;;21.99;86.48;101506.88;5005848;28;20038;-70
2023/07/17 07:36:05;;;;;;;14.35;4.18;;;;;;;21.49;90.18;101508.06;5014678;28;20044;-71
2023/07/17 07:38:51;;;;;;;10.35;3.40;;;;;;;20.63;92.74;101504.78;5007308;28;20109;-71
2023/07/17 07:41:37;;;;;;;8.75;2.70;;;;;;;21.73;85.96;101501.56;5007512;28;20046;-70
2023/07/17 07:44:22;;;;;;;11.00;3.40;;;;;;;21.69;86.49;101504.88;4996695;28;20417;-69
2023/07/17 07:47:08;;;;;;;12.60;3.35;;;;;;;21.61;87.97;101511.34;4996934;28;20100;-70
2023/07/17 07:49:54;;;;;;;16.52;3.25;;;;;;;21.21;85.12;101511.22;5026397;28;20061;-70
2023/07/17 07:52:40;;;;;;;10.60;3.08;;;;;;;22.35;82.06;101511.06;5013489;28;20030;-69
2023/07/17 07:55:25;;;;;;;13.77;3.40;;;;;;;22.06;80.45;101512.59;5011116;28;20122;-70
2023/07/17 07:58:11;;;;;;;10.13;3.20;;;;;;;22.48;79.97;101516.06;5002882;28;20121;-70
2023/07/17 08:00:57;;;;;;;10.30;3.03;;;;;;;21.39;81.20;101524.94;5006682;28;20057;-72
2023/07/17 08:03:43;;;;;;;8.98;3.70;;;;;;;20.35;85.68;101521.72;5006869;28;20049;-71
2023/07/17 08:06:29;;;;;;;12.40;3.25;;;;;;;21.23;85.47;101522.19;4996551;28;20045;-70
2023/07/17 08:09:15;;;;;;;9.63;3.20;;;;;;;20.73;86.76;101527.75;5012082;28;20061;-70
2023/07/17 08:12:00;;;;;;;12.68;3.40;;;;;;;20.48;89.17;101532.38;5004311;28;20501;-70
2023/07/17 08:14:46;;;;;;;12.00;3.22;;;;;;;21.75;83.75;101543.22;5008508;28;20038;-70
2023/07/17 08:17:32;;;;;;;11.98;4.28;;;;;;;20.74;86.96;101531.38;4997302;28;20056;-71
2023/07/17 08:20:18;;;;;;;9.20;3.35;;;;;;;20.81;87.60;101542.69;5004988;28;20041;-70
2023/07/17 08:23:05;;;;;;;8.60;2.72;;;;;;;21.97;81.31;101547.13;5006806;28;20049;-69
2023/07/17 08:25:51;;;;;;;9.18;3.05;;;;;;;21.44;83.54;101539.22;5010657;28;20386;-69
2023/07/17 08:28:37;;;;;;;8.45;3.13;;;;;;;21.63;82.32;101537.16;5005195;28;20068;-70
2023/07/17 08:31:22;;;;;;;11.10;3.60;;;;;;;21.56;83.73;101539.78;4997375;28;20041;-69
2023/07/17 08:34:08;;;;;;;11.70;3.10;;;;;;;22.12;78.27;101538.88;4997487;28;20096;-70
2023/07/17 08:36:54;;;;;;;11.27;3.17;;;;;;;22.93;75.32;101540.34;4999745;28;20038;-70
2023/07/17 08:39:40;;;;;;;8.00;2.60;;;;;;;24.06;70.11;101534.91;5005328;28;20046;-70
2023/07/17 08:42:25;;;;;;;9.82;2.90;;;;;;;23.02;71.56;101543.06;4991830;28;20038;-70
2023/07/17 08:45:13;;;;;;;8.27;3.72;;;;;;;24.13;68.15;101552.66;4994294;28;20050;-70
2023/07/17 08:48:00;;;;;;;6.20;2.78;;;;;;;23.48;67.72;101543.03;5003255;28;20061;-70
2023/07/17 08:50:46;;;;;;;10.07;3.33;;;;;;;21.39;77.82;101555.59;5011372;28;20046;-70
2023/07/17 08:53:35;;;;;;;10.50;3.03;;;;;;;20.55;82.46;101552.03;5011004;28;20045;-70
2023/07/17 08:56:21;;;;;;;8.68;3.20;;;;;;;22.31;77.38;101543.19;5013644;28;20045;-70
2023/07/17 08:59:07;;;;;;;14.10;3.42;;;;;;;22.82;74.36;101551.94;5007957;28;20540;-70
2023/07/17 09:01:53;;;;;;;12.57;3.28;;;;;;;22.81;70.14;101552.13;4995641;28;20058;-70
2023/07/17 09:04:39;;;;;;;10.20;2.88;;;;;;;22.51;70.56;101550.06;4994683;28;20049;-70
2023/07/17 09:07:24;;;;;;;8.50;3.20;;;;;;;22.97;69.12;101542.78;5007279;28;20524;-70
2023/07/17 09:10:14;;;;;;;15.38;3.10;;;;;;;23.51;65.97;101541.81;5010331;28;20504;-70
2023/07/17 09:13:00;;;;;;;11.05;2.97;;;;;;;23.01;67.37;101546.94;5000249;28;20050;-70
2023/07/17 09:15:46;;;;;;;7.80;2.75;;;;;;;23.17;66.94;101562.72;4984400;28;20046;-72
2023/07/17 09:18:32;;;;;;;11.75;2.88;;;;;;;23.67;64.09;101548.06;5003553;28;20038;-72
2023/07/17 09:21:20;;;;;;;9.02;2.92;;;;;;;23.80;62.79;101550.22;5004274;28;20044;-72
2023/07/17 09:24:06;;;;;;;6.45;2.70;;;;;;;23.31;61.66;101554.38;5005461;28;20065;-72
2023/07/17 09:26:56;;;;;;;8.30;2.42;;;;;;;23.89;61.32;101550.16;5000851;28;20056;-72
2023/07/17 09:29:42;;;;;;;10.48;2.80;;;;;;;23.66;62.24;101545.47;5004998;28;20037;-72
2023/07/17 09:32:28;;;;;;;9.20;2.70;;;;;;;23.26;63.30;101554.06;5004016;28;20149;-73
2023/07/17 09:35:14;;;;;;;9.15;3.08;;;;;;;22.61;66.09;101558.19;4982293;28;20046;-72
2023/07/17 09:38:00;;;;;;;12.85;3.13;;;;;;;22.94;66.24;101561.66;4997999;28;20042;-72
2023/07/17 09:40:46;;;;;;;12.75;3.05;;;;;;;22.23;66.68;101551.56;5000078;28;20602;-72
2023/07/17 09:43:32;;;;;;;6.55;2.42;;;;;;;22.99;60.87;101563.00;5000737;28;20077;-72
2023/07/17 09:46:18;;;;;;;14.07;2.63;;;;;;;21.91;62.94;101556.25;4992783;28;20383;-72
2023/07/17 09:49:06;;;;;;;6.95;2.65;;;;;;;21.77;63.55;101571.78;5001796;28;20143;-72
2023/07/17 09:51:55;;;;;;;9.10;2.38;;;;;;;23.50;59.34;101560.50;5000781;28;20053;-71
2023/07/17 09:54:43;;;;;;;8.40;2.42;;;;;;;22.71;59.47;101552.38;4999361;28;20405;-72
2023/07/17 09:57:29;;;;;;;8.38;2.95;;;;;;;22.11;62.67;101563.13;5001805;28;20147;-72
2023/07/17 10:00:19;;;;;;;6.60;2.05;;;;;;;21.63;63.28;101557.53;5000782;28;20040;-72
2023/07/17 10:03:10;;;;;;;8.18;3.03;;;;;;;21.96;63.68;101570.50;4996085;28;20038;-71
2023/07/17 10:05:58;;;;;;;7.72;2.15;;;;;;;22.30;61.01;101569.34;4999301;28;20439;-72
2023/07/17 10:08:47;;;;;;;9.02;2.53;;;;;;;22.84;61.05;101571.31;5009525;28;20505;-72
2023/07/17 10:11:33;;;;;;;13.80;2.72;;;;;;;22.08;60.02;101566.28;5003088;28;20038;-72
2023/07/17 10:14:20;;;;;;;8.30;2.53;;;;;;;22.29;61.28;101564.84;5004817;28;20037;-72
2023/07/17 10:17:32;;;;;;;5.65;2.25;;;;;;;23.44;57.51;101567.72;4993205;28;20038;-72
2023/07/17 10:20:18;;;;;;;5.68;2.45;;;;;;;22.60;60.03;101566.78;4997198;28;20030;-72
2023/07/17 10:23:09;;;;;;;3.97;2.13;;;;;;;22.27;60.82;101572.47;5008526;28;20038;-73
2023/07/17 10:26:19;;;;;;;8.50;2.63;;;;;;;22.03;61.40;101568.72;5000079;28;20046;-72
2023/07/17 10:29:05;;;;;;;6.10;2.60;;;;;;;22.48;59.46;101571.88;4996574;28;20034;-72
2023/07/17 10:31:51;;;;;;;5.85;2.50;;;;;;;23.18;57.63;101568.13;5006386;28;20048;-73
2023/07/17 10:34:48;;;;;;;11.07;2.58;;;;;;;23.66;57.17;101570.63;4999984;28;20090;-72
2023/07/17 10:37:34;;;;;;;9.43;2.78;;;;;;;23.91;56.01;101570.41;4989842;28;20441;-73
2023/07/17 10:40:27;;;;;;;8.07;2.63;;;;;;;23.93;54.17;101560.78;5004453;28;20030;-72
2023/07/17 10:43:15;;;;;;;6.72;2.63;;;;;;;24.33;53.88;101571.66;4999686;28;20479;-73
2023/07/17 10:46:08;;;;;;;7.45;2.97;;;;;;;23.73;56.87;101559.59;4997944;28;20034;-72
2023/07/17 10:49:05;;;;;;;7.60;3.00;;;;;;;23.08;56.61;101547.94;5002203;28;20042;-72
2023/07/17 10:51:50;;;;;;;7.53;2.45;;;;;;;22.35;57.79;101559.41;5004010;28;20037;-72
2023/07/17 10:54:36;;;;;;;6.93;2.70;;;;;;;23.70;56.82;101559.97;5003287;28;20117;-72
2023/07/17 10:57:22;;;;;;;10.52;2.75;;;;;;;24.54;54.01;101554.91;4988493;28;20046;-72
2023/07/17 11:00:10;;;;;;;10.32;2.85;;;;;;;23.92;53.33;101563.75;5002201;28;20042;-73
2023/07/17 11:02:56;;;;;;;6.35;2.70;;;;;;;24.27;52.63;101564.03;5000019;28;20045;-73
2023/07/17 11:05:43;;;;;;;6.90;2.95;;;;;;;24.95;52.32;101559.06;4994934;28;20505;-73
2023/07/17 11:08:29;;;;;;;11.27;3.10;;;;;;;24.49;52.29;101557.44;4994485;28;20049;-72
2023/07/17 11:11:16;;;;;;;9.48;3.00;;;;;;;23.75;52.11;101557.47;5001843;28;20425;-73
2023/07/17 11:14:03;;;;;;;6.80;2.83;;;;;;;24.14;53.43;101554.41;5007017;28;20490;-72
2023/07/17 11:16:52;;;;;;;4.80;2.90;;;;;;;24.06;51.98;101557.31;5008059;28;20441;-72
2023/07/17 11:19:38;;;;;;;11.15;3.08;;;;;;;24.45;53.38;101558.91;5002854;28;20038;-72
2023/07/17 11:22:29;;;;;;;5.90;2.63;;;;;;;25.20;50.94;101551.09;4997623;28;20053;-72
2023/07/17 11:25:16;;;;;;;7.87;3.03;;;;;;;25.71;51.78;101543.56;5002612;28;20038;-73
2023/07/17 11:28:02;;;;;;;4.68;2.45;;;;;;;25.35;50.02;101555.78;5006777;28;20515;-72
2023/07/17 11:30:48;;;;;;;5.70;2.80;;;;;;;24.12;50.48;101542.53;5008492;28;20117;-72
2023/07/17 11:33:34;;;;;;;12.85;3.17;;;;;;;23.88;52.18;101549.28;4995008;28;20097;-73
2023/07/17 11:36:19;;;;;;;8.60;2.95;;;;;;;23.70;53.28;101552.44;5009484;28;20072;-72
2023/07/17 11:39:32;;;;;;;9.88;3.20;;;;;;;24.75;50.96;101553.25;5001366;28;20033;-72
2023/07/17 11:42:17;;;;;;;10.25;3.70;;;;;;;24.85;48.92;101555.72;5008661;28;20125;-73
2023/07/17 11:45:05;;;;;;;5.60;3.38;;;;;;;25.19;50.11;101552.19;4996667;28;20038;-73
2023/07/17 11:47:55;;;;;;;9.35;3.88;;;;;;;25.11;50.48;101536.38;5002864;28;20050;-73
2023/07/17 11:50:41;;;;;;;12.00;3.40;;;;;;;24.36;50.76;101549.72;4996786;28;20485;-73
2023/07/17 11:53:27;;;;;;;8.65;3.45;;;;;;;23.78;53.03;101543.09;5008403;28;20068;-72
2023/07/17 11:56:16;;;;;;;9.65;3.58;;;;;;;23.68;54.61;101549.81;5000899;28;20034;-72
2023/07/17 11:59:02;;;;;;;7.38;3.58;;;;;;;23.99;54.28;101551.63;4984099;28;20217;-73
2023/07/17 12:01:48;;;;;;;10.55;4.20;;;;;;;23.62;56.28;101547.78;5007302;28;20558;-72
2023/07/17 12:04:41;;;;;;;8.50;4.40;;;;;;;23.36;56.23;101537.03;4998945;28;20589;-73
2023/07/17 12:07:27;;;;;;;;;;;;;;;23.24;57.98;101549.75;5006577;28;20103;-72
2023/07/17 12:10:13;;;;;;;13.05;4.15;;;;;;;23.47;57.67;101552.50;4995118;28;19929;-72
2023/07/17 12:13:00;;;;;;;7.57;3.80;;;;;;;23.57;57.71;101541.03;5000383;28;20033;-72
2023/07/17 12:15:46;;;;;;;10.25;3.90;;;;;;;23.16;57.93;101545.09;5010456;28;20053;-72
2023/07/17 12:18:31;;;;;;;9.43;4.40;;;;;;;23.35;58.16;101537.22;4998771;28;20042;-73
2023/07/17 12:21:17;;;;;;;9.20;3.78;;;;;;;22.97;59.02;101535.25;4994315;28;20046;-72
2023/07/17 12:24:04;;;;;;;5.38;3.35;;;;;;;23.76;56.13;101543.28;5007306;28;20609;-72
2023/07/17 12:26:49;;;;;;;7.28;3.80;;;;;;;23.10;58.54;101549.50;5003612;28;20046;-72
2023/07/17 12:29:35;;;;;;;9.43;3.70;;;;;;;23.10;59.76;101546.72;4999129;28;20034;-73
2023/07/17 12:32:21;;;;;;;11.90;3.95;;;;;;;22.65;61.09;101558.72;5009817;28;20046;-72
2023/07/17 12:35:08;;;;;;;13.23;3.72;;;;;;;22.27;62.45;101559.41;5001543;28;20492;-73
2023/07/17 12:37:53;;;;;;;8.75;3.92;;;;;;;22.59;61.67;101560.31;4999696;28;20516;-72
2023/07/17 12:40:39;;;;;;;10.60;3.97;;;;;;;22.66;61.79;101554.84;5000018;28;20402;-73
2023/07/17 12:43:25;;;;;;;11.27;3.90;;;;;;;22.43;62.93;101550.13;5002326;28;20042;-73
2023/07/17 12:46:11;;;;;;;12.25;4.63;;;;;;;22.60;81.68;101553.69;4999168;28;20506;-72